createdAt,value
2023-12-23T00:00:11.835Z,99.90
2023-12-23T00:02:46.019Z,99.90
2023-12-23T00:05:20.511Z,99.90
2023-12-23T00:07:54.948Z,99.90
2023-12-23T00:13:05.610Z,99.90
2023-12-23T00:15:39.658Z,99.90
2023-12-23T00:18:13.954Z,99.90
2023-12-23T00:20:48.401Z,99.90
2023-12-23T00:23:22.665Z,99.90
2023-12-23T00:25:58.693Z,99.90
2023-12-23T00:28:32.749Z,99.90
2023-12-23T00:31:06.796Z,99.90
2023-12-23T00:33:41.012Z,99.90
2023-12-23T00:36:15.085Z,99.90
2023-12-23T00:38:50.156Z,99.90
2023-12-23T00:44:00.003Z,99.90
2023-12-23T00:46:34.163Z,99.90
2023-12-23T00:49:08.263Z,99.90
2023-12-23T00:51:43.721Z,99.90
2023-12-23T00:54:18.636Z,99.90
2023-12-23T00:56:54.094Z,99.90
2023-12-23T00:59:28.162Z,99.90
2023-12-23T01:02:02.243Z,99.90
2023-12-23T01:04:36.375Z,99.90
2023-12-23T01:07:11.376Z,99.90
2023-12-23T01:09:45.480Z,99.90
2023-12-23T01:12:20.891Z,99.90
2023-12-23T01:14:55.133Z,99.90
2023-12-23T01:17:29.678Z,99.90
2023-12-23T01:20:04.663Z,99.90
2023-12-23T01:22:38.809Z,99.90
2023-12-23T01:25:12.980Z,99.90
2023-12-23T01:30:24.077Z,99.90
2023-12-23T01:32:58.285Z,99.90
2023-12-23T01:35:32.367Z,99.90
2023-12-23T01:38:08.451Z,99.90
2023-12-23T01:40:43.030Z,99.90
2023-12-23T01:43:18.471Z,99.90
2023-12-23T01:45:55.708Z,99.90
2023-12-23T01:48:31.780Z,99.90
2023-12-23T01:51:06.462Z,99.90
2023-12-23T01:53:41.329Z,99.90
2023-12-23T01:56:16.001Z,99.90
2023-12-23T01:58:52.024Z,99.90
2023-12-23T02:01:26.191Z,99.90
2023-12-23T02:04:00.348Z,99.90
2023-12-23T02:06:33.564Z,99.90
2023-12-23T02:09:07.883Z,99.90
2023-12-23T02:11:52.981Z,99.90
2023-12-23T02:14:38.514Z,99.90
2023-12-23T02:17:12.927Z,99.90
2023-12-23T02:19:47.165Z,99.90
2023-12-23T02:24:57.256Z,99.90
2023-12-23T02:27:41.140Z,99.90
2023-12-23T02:30:18.474Z,99.90
2023-12-23T02:32:53.553Z,99.90
2023-12-23T02:35:29.243Z,99.90
2023-12-23T02:38:04.922Z,99.90
2023-12-23T02:40:39.208Z,99.90
2023-12-23T02:43:13.334Z,99.90
2023-12-23T02:45:47.379Z,99.90
2023-12-23T02:48:21.512Z,99.90
2023-12-23T02:50:55.594Z,99.90
2023-12-23T02:56:05.818Z,99.90
2023-12-23T02:58:39.948Z,99.90
2023-12-23T03:01:14.066Z,99.90
2023-12-23T03:03:48.182Z,99.90
2023-12-23T03:06:22.325Z,99.90
2023-12-23T03:08:57.744Z,99.90
2023-12-23T03:11:31.820Z,99.90
2023-12-23T03:14:06.058Z,99.90
2023-12-23T03:16:40.183Z,99.90
2023-12-23T03:19:14.324Z,99.90
2023-12-23T03:21:49.338Z,99.90
2023-12-23T03:24:24.730Z,99.90
2023-12-23T03:26:58.771Z,99.90
2023-12-23T03:29:32.791Z,99.90
2023-12-23T03:32:08.468Z,99.90
2023-12-23T03:34:42.751Z,99.90
2023-12-23T03:37:16.988Z,99.90
2023-12-23T03:39:52.457Z,99.90
2023-12-23T03:42:26.516Z,99.90
2023-12-23T03:45:00.564Z,99.90
2023-12-23T03:47:35.197Z,99.90
2023-12-23T03:50:11.391Z,99.90
2023-12-23T03:52:45.704Z,99.90
2023-12-23T03:55:21.087Z,99.90
2023-12-23T03:57:55.122Z,99.90
2023-12-23T04:00:29.158Z,99.90
2023-12-23T04:03:03.260Z,99.90
2023-12-23T04:05:37.308Z,99.90
2023-12-23T04:08:12.128Z,99.90
2023-12-23T04:10:47.972Z,99.90
2023-12-23T04:13:22.123Z,99.90
2023-12-23T04:15:56.151Z,99.90
2023-12-23T04:18:30.316Z,99.90
2023-12-23T04:21:05.265Z,99.90
2023-12-23T04:23:39.366Z,99.90
2023-12-23T04:26:16.046Z,99.90
2023-12-23T04:28:50.248Z,99.90
2023-12-23T04:31:24.436Z,99.90
2023-12-23T04:33:58.769Z,99.90
2023-12-23T04:36:32.874Z,99.90
2023-12-23T04:39:07.323Z,99.90
2023-12-23T04:41:48.145Z,99.90
2023-12-23T04:44:22.915Z,99.90
2023-12-23T04:46:57.303Z,99.90
2023-12-23T04:49:31.397Z,99.90
2023-12-23T04:52:06.209Z,99.90
2023-12-23T04:54:40.251Z,99.90
2023-12-23T04:57:15.672Z,99.90
2023-12-23T04:59:49.827Z,99.90
2023-12-23T05:02:23.928Z,99.90
2023-12-23T05:04:59.134Z,99.90
2023-12-23T05:07:33.283Z,99.90
2023-12-23T05:10:08.170Z,99.90
2023-12-23T05:12:43.586Z,99.90
2023-12-23T05:15:17.672Z,99.90
2023-12-23T05:17:51.879Z,99.90
2023-12-23T05:23:00.954Z,99.90
2023-12-23T05:25:34.987Z,99.90
2023-12-23T05:28:10.473Z,99.90
2023-12-23T05:30:44.784Z,99.90
2023-12-23T05:33:21.168Z,99.90
2023-12-23T05:35:55.320Z,99.90
2023-12-23T05:38:29.473Z,99.90
2023-12-23T05:41:03.634Z,99.90
2023-12-23T05:43:39.083Z,99.90
2023-12-23T05:46:13.163Z,99.90
2023-12-23T05:48:47.429Z,99.90
2023-12-23T05:51:21.533Z,99.90
2023-12-23T05:53:55.715Z,99.90
2023-12-23T05:56:29.754Z,99.90
2023-12-23T05:59:05.251Z,99.90
2023-12-23T06:01:39.372Z,99.90
2023-12-23T06:04:13.503Z,99.90
2023-12-23T06:06:47.557Z,99.90
2023-12-23T06:09:21.624Z,99.90
2023-12-23T06:11:55.652Z,99.90
2023-12-23T06:14:31.203Z,99.90
2023-12-23T06:17:05.767Z,99.90
2023-12-23T06:19:39.916Z,99.90
2023-12-23T06:22:14.119Z,99.90
2023-12-23T06:24:48.180Z,99.90
2023-12-23T06:27:22.226Z,99.90
2023-12-23T06:32:32.242Z,99.90
2023-12-23T06:35:07.311Z,99.90
2023-12-23T06:37:41.428Z,99.90
2023-12-23T06:40:16.586Z,99.90
2023-12-23T06:42:51.057Z,99.90
2023-12-23T06:45:26.653Z,99.90
2023-12-23T06:48:00.935Z,99.90
2023-12-23T06:50:35.161Z,99.90
2023-12-23T06:53:10.081Z,99.90
2023-12-23T06:55:44.193Z,99.90
2023-12-23T06:58:18.361Z,99.90
2023-12-23T07:00:53.796Z,99.90
2023-12-23T07:03:27.875Z,99.90
2023-12-23T07:06:02.341Z,99.90
2023-12-23T07:08:36.456Z,99.90
2023-12-23T07:11:12.111Z,99.90
2023-12-23T07:13:46.339Z,99.90
2023-12-23T07:16:21.865Z,99.90
2023-12-23T07:18:56.081Z,99.90
2023-12-23T07:21:30.231Z,99.90
2023-12-23T07:24:04.796Z,99.90
2023-12-23T07:26:38.905Z,99.90
2023-12-23T07:29:13.660Z,99.90
2023-12-23T07:31:49.172Z,99.90
2023-12-23T07:34:23.256Z,99.90
2023-12-23T07:36:57.324Z,99.90
2023-12-23T07:39:31.375Z,99.90
2023-12-23T07:42:05.881Z,99.90
2023-12-23T07:44:39.989Z,99.90
2023-12-23T07:47:15.451Z,99.90
2023-12-23T07:49:49.621Z,99.90
2023-12-23T07:52:23.743Z,99.90
2023-12-23T07:54:58.349Z,99.90
2023-12-23T07:57:32.386Z,99.90
2023-12-23T08:00:08.472Z,99.90
2023-12-23T08:02:44.198Z,99.90
2023-12-23T08:05:18.939Z,99.90
2023-12-23T08:07:53.045Z,99.90
2023-12-23T08:10:27.145Z,99.90
2023-12-23T08:13:01.294Z,99.90
2023-12-23T08:15:35.347Z,99.90
2023-12-23T08:18:10.954Z,99.90
2023-12-23T08:20:45.065Z,99.90
2023-12-23T08:23:19.260Z,99.90
2023-12-23T08:25:53.444Z,99.90
2023-12-23T08:28:27.694Z,99.90
2023-12-23T08:31:04.048Z,99.90
2023-12-23T08:33:39.519Z,99.90
2023-12-23T08:36:14.204Z,99.90
2023-12-23T08:38:48.872Z,99.90
2023-12-23T08:41:23.154Z,99.90
2023-12-23T08:43:57.337Z,99.90
2023-12-23T08:46:31.727Z,99.90
2023-12-23T08:51:42.849Z,99.90
2023-12-23T08:54:17.993Z,99.90
2023-12-23T08:56:52.129Z,99.90
2023-12-23T08:59:26.420Z,99.90
2023-12-23T09:02:03.741Z,99.90
2023-12-23T09:04:39.390Z,99.90
2023-12-23T09:07:14.402Z,99.90
2023-12-23T09:09:48.538Z,99.90
2023-12-23T09:12:22.962Z,99.90
2023-12-23T09:14:57.143Z,99.90
2023-12-23T09:17:34.467Z,99.90
2023-12-23T09:20:12.493Z,99.90
2023-12-23T09:22:49.499Z,99.90
2023-12-23T09:25:23.868Z,99.90
2023-12-23T09:27:58.276Z,99.90
2023-12-23T09:30:32.491Z,99.90
2023-12-23T09:33:07.824Z,99.90
2023-12-23T09:35:43.698Z,99.90
2023-12-23T09:38:17.965Z,99.90
2023-12-23T09:40:52.477Z,99.90
2023-12-23T09:46:10.256Z,99.70
2023-12-23T09:48:45.244Z,99.80
2023-12-23T09:51:23.569Z,99.70
2023-12-23T09:54:05.929Z,99.70
2023-12-23T09:56:40.452Z,99.80
2023-12-23T09:59:14.694Z,99.60
2023-12-23T10:01:49.035Z,99.80
2023-12-23T10:04:23.193Z,99.80
2023-12-23T10:06:58.979Z,99.90
2023-12-23T10:09:34.799Z,99.70
2023-12-23T10:12:12.829Z,99.90
2023-12-23T10:14:49.149Z,99.80
2023-12-23T10:17:23.512Z,99.60
2023-12-23T10:19:58.533Z,99.80
2023-12-23T10:22:36.288Z,99.50
2023-12-23T10:27:48.146Z,99.50
2023-12-23T10:30:26.702Z,99.50
2023-12-23T10:33:07.663Z,99.50
2023-12-23T10:35:47.438Z,99.60
2023-12-23T10:41:08.804Z,99.40
2023-12-23T10:43:43.924Z,99.50
2023-12-23T10:46:18.301Z,99.60
2023-12-23T10:48:53.633Z,99.40
2023-12-23T10:51:29.829Z,99.50
2023-12-23T10:54:07.179Z,99.30
2023-12-23T10:56:43.290Z,99.30
2023-12-23T10:59:17.699Z,99.40
2023-12-23T11:01:52.096Z,99.30
2023-12-23T11:04:27.757Z,99.30
2023-12-23T11:07:04.757Z,99.20
2023-12-23T11:09:42.368Z,99.30
2023-12-23T11:12:18.305Z,99.50
2023-12-23T11:14:52.820Z,99.20
2023-12-23T11:17:29.256Z,99.50
2023-12-23T11:20:07.638Z,99.40
2023-12-23T11:22:42.231Z,99.40
2023-12-23T11:25:40.645Z,99.30
2023-12-23T11:28:15.914Z,99.50
2023-12-23T11:30:50.880Z,99.60
2023-12-23T11:33:28.619Z,99.60
2023-12-23T11:36:04.720Z,99.90
2023-12-23T11:38:52.635Z,99.90
2023-12-23T11:41:29.168Z,99.70
2023-12-23T11:44:04.290Z,99.70
2023-12-23T11:46:41.622Z,99.70
2023-12-23T11:49:16.073Z,99.80
2023-12-23T11:51:50.269Z,99.80
2023-12-23T11:54:26.205Z,99.80
2023-12-23T11:57:01.783Z,99.80
2023-12-23T11:59:37.426Z,99.80
2023-12-23T12:02:12.728Z,99.80
2023-12-23T12:04:47.804Z,99.90
2023-12-23T12:07:23.495Z,99.80
2023-12-23T12:09:57.767Z,99.90
2023-12-23T12:15:11.093Z,99.90
2023-12-23T12:20:20.211Z,99.80
2023-12-23T12:22:55.568Z,99.70
2023-12-23T12:25:30.408Z,99.60
2023-12-23T12:28:08.663Z,99.70
2023-12-23T12:30:42.905Z,99.70
2023-12-23T12:33:17.389Z,99.90
2023-12-23T12:35:51.722Z,99.70
2023-12-23T12:38:25.922Z,99.70
2023-12-23T12:41:00.988Z,99.80
2023-12-23T12:43:39.822Z,99.80
2023-12-23T12:46:16.735Z,99.80
2023-12-23T12:48:51.677Z,99.70
2023-12-23T12:51:26.619Z,99.50
2023-12-23T12:54:01.998Z,99.70
2023-12-23T12:56:36.921Z,99.20
2023-12-23T12:59:13.261Z,99.30
2023-12-23T13:01:47.405Z,99.40
2023-12-23T13:04:21.614Z,99.00
2023-12-23T13:06:55.773Z,98.70
2023-12-23T13:09:30.075Z,98.70
2023-12-23T13:17:15.388Z,98.40
2023-12-23T13:19:50.011Z,98.60
2023-12-23T13:22:24.480Z,99.20
2023-12-23T13:24:59.015Z,98.60
2023-12-23T13:27:33.081Z,98.70
2023-12-23T13:30:11.836Z,98.60
2023-12-23T13:32:46.252Z,98.60
2023-12-23T13:35:21.191Z,98.50
2023-12-23T13:37:58.169Z,98.30
2023-12-23T13:40:32.341Z,98.30
2023-12-23T13:43:06.569Z,98.30
2023-12-23T13:45:42.135Z,98.40
2023-12-23T13:48:16.902Z,98.40
2023-12-23T13:50:51.913Z,98.70
2023-12-23T13:53:26.592Z,98.50
2023-12-23T13:56:01.342Z,98.40
2023-12-23T13:58:35.531Z,98.60
2023-12-23T14:01:13.402Z,98.40
2023-12-23T14:03:47.714Z,98.50
2023-12-23T14:06:22.274Z,99.20
2023-12-23T14:08:57.425Z,98.40
2023-12-23T14:11:31.833Z,98.60
2023-12-23T14:14:06.180Z,98.50
2023-12-23T14:19:16.634Z,98.50
2023-12-23T14:21:50.850Z,98.50
2023-12-23T14:24:25.814Z,98.50
2023-12-23T14:27:01.934Z,98.50
2023-12-23T14:29:36.290Z,98.50
2023-12-23T14:34:49.905Z,98.60
2023-12-23T14:37:27.895Z,98.60
2023-12-23T14:40:11.455Z,98.70
2023-12-23T14:42:45.792Z,98.60
2023-12-23T14:45:19.962Z,98.70
2023-12-23T14:50:30.231Z,98.70
2023-12-23T14:53:04.819Z,98.90
2023-12-23T14:55:42.044Z,98.70
2023-12-23T14:58:16.983Z,98.70
2023-12-23T15:00:51.342Z,99.10
2023-12-23T15:03:26.906Z,98.90
2023-12-23T15:06:02.096Z,98.70
2023-12-23T15:08:36.589Z,98.90
2023-12-23T15:11:11.099Z,98.90
2023-12-23T15:13:45.223Z,98.80
2023-12-23T15:16:19.879Z,98.90
2023-12-23T15:18:57.119Z,98.80
2023-12-23T15:21:31.470Z,98.80
2023-12-23T15:24:06.028Z,98.90
2023-12-23T15:26:40.147Z,98.80
2023-12-23T15:29:14.282Z,98.90
2023-12-23T15:34:24.455Z,98.90
2023-12-23T15:36:58.682Z,99.00
2023-12-23T15:39:32.821Z,99.00
2023-12-23T15:42:07.712Z,99.10
2023-12-23T15:44:41.862Z,99.20
2023-12-23T15:49:52.365Z,99.10
2023-12-23T15:52:26.504Z,99.10
2023-12-23T15:57:36.955Z,99.10
2023-12-23T16:00:13.493Z,99.10
2023-12-23T16:02:47.562Z,99.20
2023-12-23T16:05:23.159Z,99.10
2023-12-23T16:07:57.336Z,99.10
2023-12-23T16:10:31.570Z,99.30
2023-12-23T16:13:07.060Z,99.20
2023-12-23T16:15:41.636Z,99.30
2023-12-23T16:18:15.848Z,99.30
2023-12-23T16:26:04.512Z,99.20
2023-12-23T16:28:39.360Z,99.30
2023-12-23T16:31:13.839Z,99.50
2023-12-23T16:33:47.970Z,99.30
2023-12-23T16:36:23.545Z,99.40
2023-12-23T16:41:32.184Z,99.10
2023-12-23T16:44:06.753Z,99.30
2023-12-23T16:46:40.891Z,99.10
2023-12-23T16:49:15.090Z,99.10
2023-12-23T16:51:50.602Z,99.70
2023-12-23T16:54:24.690Z,99.00
2023-12-23T16:56:58.764Z,99.10
2023-12-23T16:59:32.990Z,99.10
2023-12-23T17:02:07.153Z,99.00
2023-12-23T17:04:41.250Z,99.80
2023-12-23T17:07:16.764Z,99.00
2023-12-23T17:09:50.874Z,99.00
2023-12-23T17:12:25.502Z,98.90
2023-12-23T17:15:00.180Z,99.60
2023-12-23T17:17:34.551Z,99.00
2023-12-23T17:20:10.527Z,98.80
2023-12-23T17:22:45.985Z,98.90
2023-12-23T17:25:20.120Z,99.00
2023-12-23T17:30:28.749Z,98.80
2023-12-23T17:33:03.256Z,98.80
2023-12-23T17:35:40.265Z,98.90
2023-12-23T17:38:16.418Z,99.40
2023-12-23T17:40:50.941Z,99.40
2023-12-23T17:43:25.086Z,98.90
2023-12-23T17:45:59.121Z,98.80
2023-12-23T17:48:33.402Z,98.80
2023-12-23T17:51:07.773Z,99.10
2023-12-23T17:56:20.848Z,98.90
2023-12-23T17:58:54.975Z,99.50
2023-12-23T18:01:29.043Z,99.30
2023-12-23T18:04:03.163Z,99.50
2023-12-23T18:06:37.305Z,99.20
2023-12-23T18:09:13.595Z,99.10
2023-12-23T18:11:47.674Z,98.70
2023-12-23T18:14:21.812Z,98.80
2023-12-23T18:16:56.120Z,98.70
2023-12-23T18:19:30.378Z,97.80
2023-12-23T18:22:04.759Z,98.70
2023-12-23T18:24:41.825Z,98.80
2023-12-23T18:27:15.966Z,98.80
2023-12-23T18:29:50.114Z,98.90
2023-12-23T18:32:24.382Z,98.70
2023-12-23T18:34:58.606Z,98.80
2023-12-23T18:37:34.499Z,98.70
2023-12-23T18:40:11.562Z,98.80
2023-12-23T18:42:45.665Z,98.80
2023-12-23T18:45:19.739Z,98.60
2023-12-23T18:47:53.877Z,98.60
2023-12-23T18:50:27.995Z,98.50
2023-12-23T18:53:02.151Z,98.60
2023-12-23T18:58:16.244Z,98.60
2023-12-23T19:00:51.446Z,98.70
2023-12-23T19:03:25.679Z,98.60
2023-12-23T19:06:00.119Z,98.60
2023-12-23T19:08:34.435Z,98.60
2023-12-23T19:13:44.381Z,98.60
2023-12-23T19:16:18.449Z,98.50
2023-12-23T19:18:53.013Z,98.60
2023-12-23T19:21:27.385Z,98.50
2023-12-23T19:24:01.534Z,98.60
2023-12-23T19:26:37.317Z,99.40
2023-12-23T19:29:11.527Z,98.60
2023-12-23T19:31:46.074Z,98.50
2023-12-23T19:34:21.234Z,98.80
2023-12-23T19:36:55.340Z,98.70
2023-12-23T19:39:29.403Z,98.60
2023-12-23T19:42:06.453Z,98.60
2023-12-23T19:44:40.502Z,98.70
2023-12-23T19:47:14.595Z,98.50
2023-12-23T19:52:23.041Z,98.50
2023-12-23T19:54:57.420Z,98.40
2023-12-23T19:57:33.201Z,98.40
2023-12-23T20:00:10.611Z,98.50
2023-12-23T20:02:44.828Z,98.60
2023-12-23T20:05:19.073Z,98.50
2023-12-23T20:07:53.246Z,98.50
2023-12-23T20:10:27.306Z,98.40
2023-12-23T20:13:03.263Z,98.50
2023-12-23T20:15:37.513Z,98.50
2023-12-23T20:18:11.779Z,98.60
2023-12-23T20:20:46.126Z,99.10
2023-12-23T20:23:20.216Z,98.60
2023-12-23T20:25:54.323Z,98.50
2023-12-23T20:28:29.751Z,98.50
2023-12-23T20:31:03.843Z,98.80
2023-12-23T20:33:37.994Z,98.60
2023-12-23T20:41:21.893Z,98.50
2023-12-23T20:46:32.558Z,98.50
2023-12-23T20:49:06.709Z,98.40
2023-12-23T20:51:44.928Z,98.40
2023-12-23T20:54:19.058Z,98.40
2023-12-23T20:56:54.506Z,98.60
2023-12-23T21:02:08.201Z,98.30
2023-12-23T21:04:42.380Z,98.10
2023-12-23T21:07:17.421Z,98.20
2023-12-23T21:09:55.028Z,98.20
2023-12-23T21:12:29.174Z,98.20
2023-12-23T21:15:05.822Z,98.30
2023-12-23T21:17:40.094Z,98.40
2023-12-23T21:20:14.563Z,98.80
2023-12-23T21:22:48.811Z,98.70
2023-12-23T21:25:23.047Z,98.30
2023-12-23T21:27:57.149Z,98.90
2023-12-23T21:33:07.553Z,98.20
2023-12-23T21:35:41.698Z,98.30
2023-12-23T21:38:15.873Z,98.50
2023-12-23T21:40:50.547Z,98.30
2023-12-23T21:43:24.697Z,98.30
2023-12-23T21:48:35.240Z,98.40
2023-12-23T21:51:09.457Z,98.40
2023-12-23T21:53:43.590Z,98.40
2023-12-23T21:56:17.769Z,98.80
2023-12-23T21:58:52.067Z,98.30
2023-12-23T22:01:27.523Z,98.30
2023-12-23T22:04:01.637Z,98.20
2023-12-23T22:06:35.774Z,98.20
2023-12-23T22:09:09.862Z,98.20
2023-12-23T22:11:43.941Z,98.40
2023-12-23T22:14:18.052Z,98.20
2023-12-23T22:16:53.576Z,98.20
2023-12-23T22:19:27.748Z,98.90
2023-12-23T22:22:01.873Z,98.00
2023-12-23T22:24:35.969Z,98.10
2023-12-23T22:27:10.279Z,98.30
2023-12-23T22:29:44.353Z,98.30
2023-12-23T22:34:54.572Z,98.20
2023-12-23T22:37:28.739Z,98.40
2023-12-23T22:40:02.849Z,98.30
2023-12-23T22:42:37.598Z,98.20
2023-12-23T22:45:12.872Z,98.20
2023-12-23T22:47:48.357Z,98.20
2023-12-23T22:50:22.476Z,98.20
2023-12-23T22:52:56.570Z,98.10
2023-12-23T22:55:30.736Z,98.10
2023-12-23T22:58:05.026Z,98.90
2023-12-23T23:00:39.196Z,98.10
2023-12-23T23:03:14.750Z,98.10
2023-12-23T23:05:48.946Z,98.20
2023-12-23T23:08:23.156Z,98.80
2023-12-23T23:10:57.311Z,98.20
2023-12-23T23:13:31.367Z,98.10
2023-12-23T23:16:06.169Z,98.90
2023-12-23T23:18:43.503Z,98.20
2023-12-23T23:21:20.313Z,98.70
2023-12-23T23:23:55.176Z,98.00
2023-12-23T23:26:29.720Z,98.20
2023-12-23T23:29:05.319Z,98.00
2023-12-23T23:31:39.505Z,98.20
2023-12-23T23:34:15.136Z,98.20
2023-12-23T23:36:49.333Z,98.10
2023-12-23T23:39:23.388Z,98.10
2023-12-23T23:41:57.508Z,98.10
2023-12-23T23:44:31.655Z,98.10
2023-12-23T23:47:06.099Z,98.30
2023-12-23T23:49:41.967Z,98.10
2023-12-23T23:52:16.572Z,98.10
2023-12-23T23:54:50.684Z,98.10
2023-12-23T23:57:24.907Z,98.10
2023-12-23T23:59:58.997Z,98.80
